sensor_id;sensor_type;location;lat;lon;timestamp;pressure;altitude;pressure_sealevel;temperature;humidity
10806;BME280;5455;53.224;6.000;2023-02-28T00:00:37;103263.16;;;4.27;100.00
10806;BME280;5455;53.224;6.000;2023-02-28T00:03:05;103258.22;;;4.24;100.00
10806;BME280;5455;53.224;6.000;2023-02-28T00:05:33;103257.66;;;4.22;100.00
10806;BME280;5455;53.224;6.000;2023-02-28T00:08:00;103256.00;;;4.21;100.00
10806;BME280;5455;53.224;6.000;2023-02-28T00:10:28;103250.22;;;4.18;100.00
10806;BME280;5455;53.224;6.000;2023-02-28T00:13:01;103258.13;;;4.14;100.00
10806;BME280;5455;53.224;6.000;2023-02-28T00:15:31;103259.16;;;4.08;100.00
10806;BME280;5455;53.224;6.000;2023-02-28T00:17:58;103253.63;;;4.03;100.00
10806;BME280;5455;53.224;6.000;2023-02-28T00:20:25;103257.97;;;3.99;100.00
10806;BME280;5455;53.224;6.000;2023-02-28T00:22:54;103252.75;;;3.98;100.00
10806;BME280;5455;53.224;6.000;2023-02-28T00:25:23;103251.34;;;3.95;100.00
10806;BME280;5455;53.224;6.000;2023-02-28T00:27:50;103256.25;;;3.93;100.00
10806;BME280;5455;53.224;6.000;2023-02-28T00:30:20;103256.81;;;3.95;100.00
10806;BME280;5455;53.224;6.000;2023-02-28T00:32:48;103258.72;;;3.95;100.00
10806;BME280;5455;53.224;6.000;2023-02-28T00:35:16;103259.53;;;3.95;100.00
10806;BME280;5455;53.224;6.000;2023-02-28T00:37:44;103247.22;;;3.93;100.00
10806;BME280;5455;53.224;6.000;2023-02-28T00:40:11;103255.16;;;3.94;100.00
10806;BME280;5455;53.224;6.000;2023-02-28T00:42:39;103249.13;;;3.92;100.00
10806;BME280;5455;53.224;6.000;2023-02-28T00:45:07;103252.09;;;3.90;100.00
10806;BME280;5455;53.224;6.000;2023-02-28T00:47:37;103251.53;;;3.88;100.00
10806;BME280;5455;53.224;6.000;2023-02-28T00:50:05;103239.88;;;3.93;100.00
10806;BME280;5455;53.224;6.000;2023-02-28T00:52:32;103250.00;;;3.98;100.00
10806;BME280;5455;53.224;6.000;2023-02-28T00:54:59;103259.34;;;4.02;100.00
10806;BME280;5455;53.224;6.000;2023-02-28T00:57:26;103255.28;;;4.04;100.00
10806;BME280;5455;53.224;6.000;2023-02-28T00:59:53;103251.25;;;4.12;100.00
10806;BME280;5455;53.224;6.000;2023-02-28T01:02:23;103254.88;;;4.17;100.00
10806;BME280;5455;53.224;6.000;2023-02-28T01:04:52;103244.25;;;4.21;100.00
10806;BME280;5455;53.224;6.000;2023-02-28T01:07:19;103247.81;;;4.21;100.00
10806;BME280;5455;53.224;6.000;2023-02-28T01:09:46;103246.75;;;4.22;100.00
10806;BME280;5455;53.224;6.000;2023-02-28T01:12:12;103254.97;;;4.27;100.00
10806;BME280;5455;53.224;6.000;2023-02-28T01:14:39;103244.00;;;4.22;100.00
10806;BME280;5455;53.224;6.000;2023-02-28T01:17:06;103248.31;;;4.18;100.00
10806;BME280;5455;53.224;6.000;2023-02-28T01:19:34;103238.19;;;4.14;100.00
10806;BME280;5455;53.224;6.000;2023-02-28T01:22:06;103232.66;;;4.09;100.00
10806;BME280;5455;53.224;6.000;2023-02-28T01:24:34;103235.66;;;4.07;100.00
10806;BME280;5455;53.224;6.000;2023-02-28T01:27:00;103232.88;;;4.02;100.00
10806;BME280;5455;53.224;6.000;2023-02-28T01:29:27;103237.19;;;3.98;100.00
10806;BME280;5455;53.224;6.000;2023-02-28T01:31:54;103223.53;;;3.98;100.00
10806;BME280;5455;53.224;6.000;2023-02-28T01:34:22;103224.38;;;3.99;100.00
10806;BME280;5455;53.224;6.000;2023-02-28T01:36:50;103225.22;;;3.99;100.00
10806;BME280;5455;53.224;6.000;2023-02-28T01:39:18;103221.38;;;4.00;100.00
10806;BME280;5455;53.224;6.000;2023-02-28T01:41:45;103220.03;;;4.03;100.00
10806;BME280;5455;53.224;6.000;2023-02-28T01:47:16;103210.53;;;4.05;100.00
10806;BME280;5455;53.224;6.000;2023-02-28T01:49:43;103215.47;;;4.08;100.00
10806;BME280;5455;53.224;6.000;2023-02-28T01:52:12;103214.97;;;4.11;100.00
10806;BME280;5455;53.224;6.000;2023-02-28T01:54:50;103216.28;;;4.09;100.00
10806;BME280;5455;53.224;6.000;2023-02-28T01:57:21;103220.09;;;4.08;100.00
10806;BME280;5455;53.224;6.000;2023-02-28T02:00:03;103221.22;;;4.12;100.00
10806;BME280;5455;53.224;6.000;2023-02-28T02:02:40;103225.94;;;4.16;100.00
10806;BME280;5455;53.224;6.000;2023-02-28T02:05:14;103217.72;;;4.16;100.00
10806;BME280;5455;53.224;6.000;2023-02-28T02:07:44;103213.69;;;4.24;100.00
10806;BME280;5455;53.224;6.000;2023-02-28T02:13:07;103210.25;;;4.33;100.00
10806;BME280;5455;53.224;6.000;2023-02-28T02:15:42;103202.88;;;4.34;100.00
10806;BME280;5455;53.224;6.000;2023-02-28T02:35:05;103196.22;;;4.52;100.00
10806;BME280;5455;53.224;6.000;2023-02-28T02:37:43;103198.16;;;4.56;100.00
10806;BME280;5455;53.224;6.000;2023-02-28T02:40:19;103194.09;;;4.59;100.00
10806;BME280;5455;53.224;6.000;2023-02-28T02:43:16;103193.25;;;4.58;100.00
10806;BME280;5455;53.224;6.000;2023-02-28T02:45:52;103190.56;;;4.63;100.00
10806;BME280;5455;53.224;6.000;2023-02-28T02:48:25;103186.22;;;4.67;100.00
10806;BME280;5455;53.224;6.000;2023-02-28T02:50:58;103185.44;;;4.72;100.00
10806;BME280;5455;53.224;6.000;2023-02-28T02:53:36;103179.97;;;4.72;100.00
10806;BME280;5455;53.224;6.000;2023-02-28T02:56:07;103180.47;;;4.69;100.00
10806;BME280;5455;53.224;6.000;2023-02-28T02:58:39;103178.56;;;4.64;100.00
10806;BME280;5455;53.224;6.000;2023-02-28T03:01:15;103177.94;;;4.57;100.00
10806;BME280;5455;53.224;6.000;2023-02-28T03:03:45;103171.91;;;4.50;100.00
10806;BME280;5455;53.224;6.000;2023-02-28T03:06:14;103176.53;;;4.50;100.00
10806;BME280;5455;53.224;6.000;2023-02-28T03:08:41;103175.47;;;4.51;100.00
10806;BME280;5455;53.224;6.000;2023-02-28T03:11:13;103179.50;;;4.48;100.00
10806;BME280;5455;53.224;6.000;2023-02-28T03:19:45;103183.66;;;4.51;100.00
10806;BME280;5455;53.224;6.000;2023-02-28T03:25:07;103182.84;;;4.55;100.00
10806;BME280;5455;53.224;6.000;2023-02-28T03:27:41;103168.88;;;4.52;100.00
10806;BME280;5455;53.224;6.000;2023-02-28T03:32:43;103170.28;;;4.54;100.00
10806;BME280;5455;53.224;6.000;2023-02-28T03:35:18;103168.88;;;4.52;100.00
10806;BME280;5455;53.224;6.000;2023-02-28T03:37:53;103175.69;;;4.49;100.00
10806;BME280;5455;53.224;6.000;2023-02-28T03:40:25;103163.41;;;4.47;100.00
10806;BME280;5455;53.224;6.000;2023-02-28T03:43:00;103167.19;;;4.45;100.00
10806;BME280;5455;53.224;6.000;2023-02-28T03:45:31;103162.00;;;4.44;100.00
10806;BME280;5455;53.224;6.000;2023-02-28T03:48:15;103160.34;;;4.43;100.00
10806;BME280;5455;53.224;6.000;2023-02-28T03:50:47;103162.00;;;4.44;100.00
10806;BME280;5455;53.224;6.000;2023-02-28T03:53:19;103162.84;;;4.44;100.00
10806;BME280;5455;53.224;6.000;2023-02-28T03:55:52;103159.53;;;4.42;100.00
10806;BME280;5455;53.224;6.000;2023-02-28T03:58:23;103170.50;;;4.48;100.00
10806;BME280;5455;53.224;6.000;2023-02-28T04:01:03;103168.34;;;4.50;100.00
10806;BME280;5455;53.224;6.000;2023-02-28T04:03:36;103164.25;;;4.52;100.00
10806;BME280;5455;53.224;6.000;2023-02-28T04:06:06;103158.28;;;4.55;100.00
10806;BME280;5455;53.224;6.000;2023-02-28T04:08:34;103159.66;;;4.58;100.00
10806;BME280;5455;53.224;6.000;2023-02-28T04:11:05;103166.25;;;4.62;100.00
10806;BME280;5455;53.224;6.000;2023-02-28T04:13:33;103168.16;;;4.66;100.00
10806;BME280;5455;53.224;6.000;2023-02-28T04:16:00;103171.22;;;4.70;100.00
10806;BME280;5455;53.224;6.000;2023-02-28T04:18:27;103176.97;;;4.73;100.00
10806;BME280;5455;53.224;6.000;2023-02-28T04:20:54;103169.63;;;4.74;100.00
10806;BME280;5455;53.224;6.000;2023-02-28T04:23:23;103170.69;;;4.73;100.00
10806;BME280;5455;53.224;6.000;2023-02-28T04:25:55;103169.31;;;4.70;100.00
10806;BME280;5455;53.224;6.000;2023-02-28T04:28:22;103173.94;;;4.70;100.00
10806;BME280;5455;53.224;6.000;2023-02-28T04:30:57;103172.59;;;4.72;100.00
10806;BME280;5455;53.224;6.000;2023-02-28T04:33:28;103175.06;;;4.74;100.00
10806;BME280;5455;53.224;6.000;2023-02-28T04:36:05;103167.97;;;4.73;100.00
10806;BME280;5455;53.224;6.000;2023-02-28T04:38:36;103161.97;;;4.76;100.00
10806;BME280;5455;53.224;6.000;2023-02-28T04:41:04;103164.69;;;4.76;100.00
10806;BME280;5455;53.224;6.000;2023-02-28T04:43:32;103169.34;;;4.75;100.00
10806;BME280;5455;53.224;6.000;2023-02-28T04:46:01;103166.06;;;4.78;100.00
10806;BME280;5455;53.224;6.000;2023-02-28T04:48:30;103163.09;;;4.80;100.00
10806;BME280;5455;53.224;6.000;2023-02-28T04:51:01;103158.16;;;4.77;100.00
10806;BME280;5455;53.224;6.000;2023-02-28T04:53:29;103162.78;;;4.76;100.00
10806;BME280;5455;53.224;6.000;2023-02-28T04:55:56;103158.41;;;4.75;100.00
10806;BME280;5455;53.224;6.000;2023-02-28T04:58:25;103167.72;;;4.79;100.00
10806;BME280;5455;53.224;6.000;2023-02-28T05:00:53;103164.72;;;4.81;100.00
10806;BME280;5455;53.224;6.000;2023-02-28T05:03:20;103170.47;;;4.79;100.00
10806;BME280;5455;53.224;6.000;2023-02-28T05:05:48;103163.94;;;4.80;100.00
10806;BME280;5455;53.224;6.000;2023-02-28T05:08:15;103170.50;;;4.84;100.00
10806;BME280;5455;53.224;6.000;2023-02-28T05:10:42;103163.41;;;4.88;100.00
10806;BME280;5455;53.224;6.000;2023-02-28T05:13:11;103168.06;;;4.93;100.00
10806;BME280;5455;53.224;6.000;2023-02-28T05:15:40;103171.94;;;4.97;100.00
10806;BME280;5455;53.224;6.000;2023-02-28T05:18:11;103168.69;;;5.00;100.00
10806;BME280;5455;53.224;6.000;2023-02-28T05:20:38;103161.84;;;5.03;100.00
10806;BME280;5455;53.224;6.000;2023-02-28T05:23:05;103163.81;;;5.07;100.00
10806;BME280;5455;53.224;6.000;2023-02-28T05:25:32;103173.09;;;5.11;100.00
10806;BME280;5455;53.224;6.000;2023-02-28T05:27:59;103173.69;;;5.13;100.00
10806;BME280;5455;53.224;6.000;2023-02-28T05:30:27;103177.50;;;5.12;100.00
10806;BME280;5455;53.224;6.000;2023-02-28T05:32:54;103170.34;;;5.01;100.00
10806;BME280;5455;53.224;6.000;2023-02-28T05:35:21;103174.94;;;4.95;100.00
10806;BME280;5455;53.224;6.000;2023-02-28T05:37:48;103167.53;;;4.91;100.00
10806;BME280;5455;53.224;6.000;2023-02-28T05:40:15;103177.91;;;4.89;100.00
10806;BME280;5455;53.224;6.000;2023-02-28T05:42:43;103171.06;;;4.86;100.00
10806;BME280;5455;53.224;6.000;2023-02-28T05:45:10;103173.50;;;4.83;100.00
10806;BME280;5455;53.224;6.000;2023-02-28T05:47:39;103176.75;;;4.80;100.00
10806;BME280;5455;53.224;6.000;2023-02-28T05:50:07;103181.09;;;4.76;100.00
10806;BME280;5455;53.224;6.000;2023-02-28T05:52:37;103178.88;;;4.73;100.00
10806;BME280;5455;53.224;6.000;2023-02-28T05:55:04;103175.59;;;4.71;100.00
10806;BME280;5455;53.224;6.000;2023-02-28T05:57:31;103183.75;;;4.66;100.00
10806;BME280;5455;53.224;6.000;2023-02-28T05:59:58;103183.69;;;4.56;100.00
10806;BME280;5455;53.224;6.000;2023-02-28T06:02:25;103186.28;;;4.40;100.00
10806;BME280;5455;53.224;6.000;2023-02-28T06:04:52;103177.44;;;4.28;100.00
10806;BME280;5455;53.224;6.000;2023-02-28T06:07:19;103183.38;;;4.20;100.00
10806;BME280;5455;53.224;6.000;2023-02-28T06:09:46;103174.06;;;4.16;100.00
10806;BME280;5455;53.224;6.000;2023-02-28T06:12:12;103177.25;;;4.08;100.00
10806;BME280;5455;53.224;6.000;2023-02-28T06:14:39;103185.13;;;4.05;100.00
10806;BME280;5455;53.224;6.000;2023-02-28T06:17:08;103187.50;;;3.96;100.00
10806;BME280;5455;53.224;6.000;2023-02-28T06:19:37;103185.72;;;3.85;100.00
10806;BME280;5455;53.224;6.000;2023-02-28T06:22:05;103188.88;;;3.72;100.00
10806;BME280;5455;53.224;6.000;2023-02-28T06:24:32;103194.53;;;3.65;100.00
10806;BME280;5455;53.224;6.000;2023-02-28T06:26:59;103189.25;;;3.59;100.00
10806;BME280;5455;53.224;6.000;2023-02-28T06:29:33;103178.84;;;3.56;100.00
10806;BME280;5455;53.224;6.000;2023-02-28T06:32:00;103189.25;;;3.59;100.00
10806;BME280;5455;53.224;6.000;2023-02-28T06:34:28;103194.41;;;3.55;100.00
10806;BME280;5455;53.224;6.000;2023-02-28T06:36:55;103206.91;;;3.51;100.00
10806;BME280;5455;53.224;6.000;2023-02-28T06:39:22;103206.31;;;3.49;100.00
10806;BME280;5455;53.224;6.000;2023-02-28T06:41:49;103212.94;;;3.53;100.00
10806;BME280;5455;53.224;6.000;2023-02-28T06:44:22;103210.94;;;3.49;100.00
10806;BME280;5455;53.224;6.000;2023-02-28T06:46:50;103215.28;;;3.45;100.00
10806;BME280;5455;53.224;6.000;2023-02-28T06:49:17;103225.09;;;3.46;100.00
10806;BME280;5455;53.224;6.000;2023-02-28T06:51:44;103224.78;;;3.42;100.00
10806;BME280;5455;53.224;6.000;2023-02-28T06:54:11;103234.41;;;3.50;100.00
10806;BME280;5455;53.224;6.000;2023-02-28T06:56:39;103231.38;;;3.46;100.00
10806;BME280;5455;53.224;6.000;2023-02-28T06:59:06;103241.44;;;3.46;100.00
10806;BME280;5455;53.224;6.000;2023-02-28T07:01:33;103243.03;;;3.42;100.00
10806;BME280;5455;53.224;6.000;2023-02-28T07:04:00;103246.50;;;3.37;100.00
10806;BME280;5455;53.224;6.000;2023-02-28T07:06:27;103245.13;;;3.34;100.00
10806;BME280;5455;53.224;6.000;2023-02-28T07:08:54;103245.56;;;3.26;100.00
10806;BME280;5455;53.224;6.000;2023-02-28T07:11:23;103250.19;;;3.26;100.00
10806;BME280;5455;53.224;6.000;2023-02-28T07:13:53;103257.78;;;3.24;100.00
10806;BME280;5455;53.224;6.000;2023-02-28T07:16:21;103267.38;;;3.26;100.00
10806;BME280;5455;53.224;6.000;2023-02-28T07:18:49;103264.59;;;3.21;100.00
10806;BME280;5455;53.224;6.000;2023-02-28T07:21:16;103265.75;;;3.09;100.00
10806;BME280;5455;53.224;6.000;2023-02-28T07:23:43;103264.91;;;3.08;100.00
10806;BME280;5455;53.224;6.000;2023-02-28T07:26:13;103269.03;;;3.11;100.00
10806;BME280;5455;53.224;6.000;2023-02-28T07:28:41;103265.66;;;3.04;100.00
10806;BME280;5455;53.224;6.000;2023-02-28T07:31:09;103262.28;;;2.97;100.00
10806;BME280;5455;53.224;6.000;2023-02-28T07:33:36;103269.69;;;3.01;100.00
10806;BME280;5455;53.224;6.000;2023-02-28T07:36:08;103272.91;;;2.98;100.00
10806;BME280;5455;53.224;6.000;2023-02-28T07:38:36;103275.16;;;3.01;100.00
10806;BME280;5455;53.224;6.000;2023-02-28T07:41:04;103279.47;;;2.97;100.00
10806;BME280;5455;53.224;6.000;2023-02-28T07:43:32;103283.31;;;3.01;100.00
10806;BME280;5455;53.224;6.000;2023-02-28T07:46:07;103277.88;;;3.01;100.00
10806;BME280;5455;53.224;6.000;2023-02-28T07:48:34;103283.81;;;2.98;100.00
10806;BME280;5455;53.224;6.000;2023-02-28T07:51:02;103277.16;;;3.06;100.00
10806;BME280;5455;53.224;6.000;2023-02-28T07:53:29;103279.94;;;3.11;100.00
10806;BME280;5455;53.224;6.000;2023-02-28T07:55:58;103283.84;;;3.15;100.00
10806;BME280;5455;53.224;6.000;2023-02-28T07:58:26;103282.56;;;3.22;100.00
10806;BME280;5455;53.224;6.000;2023-02-28T08:00:53;103280.50;;;3.29;100.00
10806;BME280;5455;53.224;6.000;2023-02-28T08:03:22;103290.09;;;3.32;100.00
10806;BME280;5455;53.224;6.000;2023-02-28T08:05:49;103289.50;;;3.30;100.00
10806;BME280;5455;53.224;6.000;2023-02-28T08:08:16;103287.53;;;3.25;100.00
10806;BME280;5455;53.224;6.000;2023-02-28T08:10:43;103287.53;;;3.25;100.00
10806;BME280;5455;53.224;6.000;2023-02-28T08:13:10;103289.41;;;3.25;100.00
10806;BME280;5455;53.224;6.000;2023-02-28T08:15:37;103291.97;;;3.31;100.00
10806;BME280;5455;53.224;6.000;2023-02-28T08:18:04;103295.25;;;3.33;100.00
10806;BME280;5455;53.224;6.000;2023-02-28T08:20:31;103298.66;;;3.41;100.00
10806;BME280;5455;53.224;6.000;2023-02-28T08:22:58;103302.28;;;3.46;100.00
10806;BME280;5455;53.224;6.000;2023-02-28T08:25:25;103295.75;;;3.47;100.00
10806;BME280;5455;53.224;6.000;2023-02-28T08:27:52;103303.16;;;3.52;100.00
10806;BME280;5455;53.224;6.000;2023-02-28T08:30:19;103299.81;;;3.45;100.00
10806;BME280;5455;53.224;6.000;2023-02-28T08:32:48;103298.81;;;3.51;100.00
10806;BME280;5455;53.224;6.000;2023-02-28T08:35:16;103294.25;;;3.56;100.00
10806;BME280;5455;53.224;6.000;2023-02-28T08:37:42;103302.16;;;3.58;100.00
10806;BME280;5455;53.224;6.000;2023-02-28T08:40:10;103299.53;;;3.63;100.00
10806;BME280;5455;53.224;6.000;2023-02-28T08:42:37;103300.97;;;3.70;100.00
10806;BME280;5455;53.224;6.000;2023-02-28T08:45:05;103305.88;;;3.68;100.00
10806;BME280;5455;53.224;6.000;2023-02-28T08:47:32;103307.91;;;3.78;100.00
10806;BME280;5455;53.224;6.000;2023-02-28T08:49:59;103311.53;;;3.83;100.00
10806;BME280;5455;53.224;6.000;2023-02-28T08:52:26;103321.94;;;3.86;100.00
10806;BME280;5455;53.224;6.000;2023-02-28T08:54:53;103320.53;;;3.84;100.00
10806;BME280;5455;53.224;6.000;2023-02-28T08:57:20;103314.31;;;3.88;100.00
10806;BME280;5455;53.224;6.000;2023-02-28T08:59:47;103311.06;;;3.92;100.00
10806;BME280;5455;53.224;6.000;2023-02-28T09:02:14;103311.63;;;3.94;100.00
10806;BME280;5455;53.224;6.000;2023-02-28T09:04:41;103312.09;;;4.07;100.00
10806;BME280;5455;53.224;6.000;2023-02-28T09:07:09;103307.31;;;4.19;100.00
10806;BME280;5455;53.224;6.000;2023-02-28T09:09:40;103314.81;;;4.29;100.00
10806;BME280;5455;53.224;6.000;2023-02-28T09:12:24;103311.81;;;4.30;100.00
10806;BME280;5455;53.224;6.000;2023-02-28T09:14:52;103311.38;;;4.38;100.00
10806;BME280;5455;53.224;6.000;2023-02-28T09:17:20;103313.38;;;4.48;100.00
10806;BME280;5455;53.224;6.000;2023-02-28T09:19:48;103316.00;;;4.65;100.00
10806;BME280;5455;53.224;6.000;2023-02-28T09:22:16;103313.28;;;4.65;100.00
10806;BME280;5455;53.224;6.000;2023-02-28T09:24:43;103312.09;;;4.56;100.00
10806;BME280;5455;53.224;6.000;2023-02-28T09:27:12;103317.34;;;4.62;100.00
10806;BME280;5455;53.224;6.000;2023-02-28T09:29:40;103312.44;;;4.64;100.00
10806;BME280;5455;53.224;6.000;2023-02-28T09:32:07;103307.97;;;4.85;100.00
10806;BME280;5455;53.224;6.000;2023-02-28T09:34:34;103311.38;;;4.97;100.00
10806;BME280;5455;53.224;6.000;2023-02-28T09:37:03;103325.00;;;4.92;100.00
10806;BME280;5455;53.224;6.000;2023-02-28T09:39:30;103314.38;;;4.95;100.00
10806;BME280;5455;53.224;6.000;2023-02-28T09:41:58;103322.31;;;4.97;100.00
10806;BME280;5455;53.224;6.000;2023-02-28T09:44:40;103325.00;;;4.92;100.00
10806;BME280;5455;53.224;6.000;2023-02-28T09:47:34;103324.50;;;4.95;100.00
10806;BME280;5455;53.224;6.000;2023-02-28T09:50:16;103320.13;;;4.99;100.00
10806;BME280;5455;53.224;6.000;2023-02-28T09:52:46;103313.63;;;5.05;100.00
10806;BME280;5455;53.224;6.000;2023-02-28T09:57:52;103327.88;;;5.07;100.00
10806;BME280;5455;53.224;6.000;2023-02-28T10:05:19;103329.88;;;5.17;100.00
10806;BME280;5455;53.224;6.000;2023-02-28T10:08:08;103327.22;;;5.32;100.00
10806;BME280;5455;53.224;6.000;2023-02-28T10:10:45;103321.38;;;5.55;100.00
10806;BME280;5455;53.224;6.000;2023-02-28T10:13:19;103325.69;;;5.93;100.00
10806;BME280;5455;53.224;6.000;2023-02-28T10:15:52;103320.34;;;6.18;100.00
10806;BME280;5455;53.224;6.000;2023-02-28T10:18:24;103322.59;;;6.41;100.00
10806;BME280;5455;53.224;6.000;2023-02-28T10:20:53;103323.75;;;6.65;100.00
10806;BME280;5455;53.224;6.000;2023-02-28T10:23:28;103319.63;;;6.83;100.00
10806;BME280;5455;53.224;6.000;2023-02-28T10:26:05;103324.03;;;6.84;100.00
10806;BME280;5455;53.224;6.000;2023-02-28T10:28:35;103315.50;;;6.65;100.00
10806;BME280;5455;53.224;6.000;2023-02-28T10:31:02;103326.16;;;6.52;100.00
10806;BME280;5455;53.224;6.000;2023-02-28T10:33:32;103323.75;;;6.86;100.00
10806;BME280;5455;53.224;6.000;2023-02-28T10:36:01;103323.50;;;7.02;100.00
10806;BME280;5455;53.224;6.000;2023-02-28T10:38:33;103324.88;;;7.05;100.00
10806;BME280;5455;53.224;6.000;2023-02-28T10:41:06;103323.75;;;6.81;100.00
10806;BME280;5455;53.224;6.000;2023-02-28T10:43:34;103323.75;;;6.81;100.00
10806;BME280;5455;53.224;6.000;2023-02-28T10:48:44;103323.22;;;7.04;100.00
10806;BME280;5455;53.224;6.000;2023-02-28T10:51:14;103322.94;;;7.00;100.00
10806;BME280;5455;53.224;6.000;2023-02-28T10:56:27;103318.53;;;6.94;100.00
10806;BME280;5455;53.224;6.000;2023-02-28T10:59:29;103314.44;;;6.87;100.00
10806;BME280;5455;53.224;6.000;2023-02-28T11:01:57;103319.38;;;6.95;100.00
10806;BME280;5455;53.224;6.000;2023-02-28T11:09:51;103319.09;;;6.86;100.00
10806;BME280;5455;53.224;6.000;2023-02-28T11:12:20;103313.63;;;6.86;100.00
10806;BME280;5455;53.224;6.000;2023-02-28T11:14:51;103318.28;;;6.81;100.00
10806;BME280;5455;53.224;6.000;2023-02-28T11:17:24;103315.25;;;6.82;100.00
10806;BME280;5455;53.224;6.000;2023-02-28T11:19:58;103315.56;;;6.91;100.00
10806;BME280;5455;53.224;6.000;2023-02-28T11:22:32;103314.44;;;6.87;100.00
10806;BME280;5455;53.224;6.000;2023-02-28T11:25:09;103314.72;;;6.90;100.00
10806;BME280;5455;53.224;6.000;2023-02-28T11:27:41;103306.19;;;6.92;100.00
10806;BME280;5455;53.224;6.000;2023-02-28T11:32:50;103297.09;;;6.36;100.00
10806;BME280;5455;53.224;6.000;2023-02-28T11:35:31;103300.91;;;6.30;100.00
10806;BME280;5455;53.224;6.000;2023-02-28T11:38:02;103305.31;;;6.31;100.00
10806;BME280;5455;53.224;6.000;2023-02-28T11:51:28;103306.19;;;6.61;100.00
10806;BME280;5455;53.224;6.000;2023-02-28T11:54:06;103309.47;;;6.74;100.00
10806;BME280;5455;53.224;6.000;2023-02-28T11:56:47;103302.09;;;6.89;100.00
10806;BME280;5455;53.224;6.000;2023-02-28T12:09:52;103291.94;;;6.95;100.00
10806;BME280;5455;53.224;6.000;2023-02-28T12:12:48;103287.28;;;7.00;100.00
10806;BME280;5455;53.224;6.000;2023-02-28T12:26:44;103285.66;;;6.99;100.00
10806;BME280;5455;53.224;6.000;2023-02-28T12:29:19;103280.41;;;7.13;100.00
10806;BME280;5455;53.224;6.000;2023-02-28T12:31:55;103278.50;;;7.08;100.00
10806;BME280;5455;53.224;6.000;2023-02-28T12:34:31;103282.06;;;7.14;100.00
10806;BME280;5455;53.224;6.000;2023-02-28T12:37:07;103278.19;;;7.25;100.00
10806;BME280;5455;53.224;6.000;2023-02-28T12:39:45;103277.06;;;7.36;100.00
10806;BME280;5455;53.224;6.000;2023-02-28T12:42:19;103272.69;;;7.35;100.00
10806;BME280;5455;53.224;6.000;2023-02-28T12:44:52;103276.84;;;7.17;100.00
10806;BME280;5455;53.224;6.000;2023-02-28T12:47:21;103271.34;;;7.22;100.00
10806;BME280;5455;53.224;6.000;2023-02-28T12:49:56;103271.34;;;7.33;100.00
10806;BME280;5455;53.224;6.000;2023-02-28T12:55:14;103265.81;;;7.43;100.00
10806;BME280;5455;53.224;6.000;2023-02-28T13:00:39;103256.19;;;7.45;100.00
10806;BME280;5455;53.224;6.000;2023-02-28T13:09:31;103252.31;;;7.61;100.00
10806;BME280;5455;53.224;6.000;2023-02-28T13:11:47;103252.13;;;8.02;100.00
10806;BME280;5455;53.224;6.000;2023-02-28T13:14:36;103237.13;;;8.33;100.00
10806;BME280;5455;53.224;6.000;2023-02-28T13:19:43;103232.03;;;8.55;100.00
10806;BME280;5455;53.224;6.000;2023-02-28T13:22:35;103234.72;;;8.60;100.00
10806;BME280;5455;53.224;6.000;2023-02-28T13:27:53;103228.47;;;8.11;98.86
10806;BME280;5455;53.224;6.000;2023-02-28T13:35:46;103228.22;;;8.02;100.00
10806;BME280;5455;53.224;6.000;2023-02-28T13:38:23;103215.88;;;8.00;100.00
10806;BME280;5455;53.224;6.000;2023-02-28T13:40:51;103221.66;;;7.98;100.00
10806;BME280;5455;53.224;6.000;2023-02-28T13:43:18;103218.34;;;7.96;100.00
10806;BME280;5455;53.224;6.000;2023-02-28T13:46:13;103215.50;;;8.11;100.00
10806;BME280;5455;53.224;6.000;2023-02-28T13:48:40;103222.88;;;8.26;100.00
10806;BME280;5455;53.224;6.000;2023-02-28T13:51:38;103219.69;;;8.04;97.91
10806;BME280;5455;53.224;6.000;2023-02-28T13:55:09;103217.22;;;8.02;100.00
10806;BME280;5455;53.224;6.000;2023-02-28T14:11:35;103216.75;;;7.16;98.85
10806;BME280;5455;53.224;6.000;2023-02-28T14:14:04;103216.50;;;7.17;99.62
10806;BME280;5455;53.224;6.000;2023-02-28T14:19:26;103219.75;;;7.30;100.00
10806;BME280;5455;53.224;6.000;2023-02-28T14:25:16;103208.16;;;7.48;100.00
10806;BME280;5455;53.224;6.000;2023-02-28T14:36:11;103215.88;;;8.00;90.83
10806;BME280;5455;53.224;6.000;2023-02-28T14:38:43;103225.16;;;8.14;89.25
10806;BME280;5455;53.224;6.000;2023-02-28T14:41:19;103231.22;;;8.06;88.11
10806;BME280;5455;53.224;6.000;2023-02-28T14:43:49;103220.31;;;7.91;83.93
10806;BME280;5455;53.224;6.000;2023-02-28T14:46:17;103222.25;;;7.85;83.29
10806;BME280;5455;53.224;6.000;2023-02-28T14:48:47;103224.25;;;7.69;81.62
10806;BME280;5455;53.224;6.000;2023-02-28T14:51:20;103220.22;;;7.57;83.26
10806;BME280;5455;53.224;6.000;2023-02-28T14:53:56;103224.88;;;7.51;83.72
10806;BME280;5455;53.224;6.000;2023-02-28T14:56:30;103206.78;;;7.50;84.11
10806;BME280;5455;53.224;6.000;2023-02-28T14:58:59;103209.53;;;7.45;85.09
10806;BME280;5455;53.224;6.000;2023-02-28T15:01:27;103218.28;;;7.52;85.42
10806;BME280;5455;53.224;6.000;2023-02-28T15:04:03;103213.59;;;7.58;83.20
10806;BME280;5455;53.224;6.000;2023-02-28T15:06:32;103216.06;;;7.64;81.97
10806;BME280;5455;53.224;6.000;2023-02-28T15:09:09;103210.03;;;7.57;83.35
10806;BME280;5455;53.224;6.000;2023-02-28T15:11:39;103207.56;;;7.56;83.18
10806;BME280;5455;53.224;6.000;2023-02-28T15:14:19;103209.22;;;7.57;85.21
10806;BME280;5455;53.224;6.000;2023-02-28T15:16:52;103214.16;;;7.55;85.39
10806;BME280;5455;53.224;6.000;2023-02-28T15:19:25;103204.88;;;7.51;85.65
10806;BME280;5455;53.224;6.000;2023-02-28T15:22:00;103200.47;;;7.50;86.24
10806;BME280;5455;53.224;6.000;2023-02-28T15:24:38;103193.31;;;7.54;86.45
10806;BME280;5455;53.224;6.000;2023-02-28T15:27:15;103204.03;;;7.50;86.44
10806;BME280;5455;53.224;6.000;2023-02-28T15:29:50;103193.91;;;7.41;87.64
10806;BME280;5455;53.224;6.000;2023-02-28T15:32:31;103189.00;;;7.28;86.41
10806;BME280;5455;53.224;6.000;2023-02-28T15:37:52;103189.28;;;7.21;88.81
10806;BME280;5455;53.224;6.000;2023-02-28T15:40:28;103194.78;;;7.21;88.09